Brighton, South Carolina
Current Conditions -  °F | °C
As of 12:15 PM on Saturday 20 Dec 2014 (Local Time) from KJYL Reporting Station
Moderate Rain Moderate Rain  
Wind Chill: 50°   Ceiling: 3900
Heat Index: 50°   Visibility: 3mi
Dew Point: 50°   Wind: 5mph
Humidity: 100%   Direction: 140°SE
Pressure: 30.18"   Gusts: NA
Location:  32.6001°N, 81.2393°W
Report Text: KJYL 201715Z AUTO 14004KT 3SM RA SCT028 BKN039 OVC050 10/10 A3018 RMK AO2 T01010101
Loading
Personal Weather Stations






























Interactive Weather Map New forecast layout! Learn more

10-Day Weather Forecast

Advertisements
Track Severe Weather on mobile